sensor_id;sensor_type;location;lat;lon;timestamp;pressure;altitude;pressure_sealevel;temperature;humidity
24858;BME280;12935;50.782;6.074;2023-03-26T00:00:42;98704.59;;;8.85;100.00
24858;BME280;12935;50.782;6.074;2023-03-26T00:03:10;98704.22;;;8.83;100.00
24858;BME280;12935;50.782;6.074;2023-03-26T00:05:36;98700.31;;;8.84;100.00
24858;BME280;12935;50.782;6.074;2023-03-26T00:08:01;98713.00;;;9.05;100.00
24858;BME280;12935;50.782;6.074;2023-03-26T00:10:26;98709.75;;;8.72;100.00
24858;BME280;12935;50.782;6.074;2023-03-26T00:12:52;98704.38;;;8.65;100.00
24858;BME280;12935;50.782;6.074;2023-03-26T00:15:17;98710.13;;;8.74;100.00
24858;BME280;12935;50.782;6.074;2023-03-26T00:17:42;98706.25;;;8.75;100.00
24858;BME280;12935;50.782;6.074;2023-03-26T00:20:11;98702.84;;;8.61;100.00
24858;BME280;12935;50.782;6.074;2023-03-26T00:22:37;98707.91;;;8.59;100.00
24858;BME280;12935;50.782;6.074;2023-03-26T00:25:03;98706.25;;;8.75;100.00
24858;BME280;12935;50.782;6.074;2023-03-26T00:27:29;98706.94;;;8.83;100.00
24858;BME280;12935;50.782;6.074;2023-03-26T00:29:55;98704.94;;;8.94;100.00
24858;BME280;12935;50.782;6.074;2023-03-26T00:32:21;98698.78;;;8.83;100.00
24858;BME280;12935;50.782;6.074;2023-03-26T00:34:47;98693.00;;;8.77;100.00
24858;BME280;12935;50.782;6.074;2023-03-26T00:37:12;98691.31;;;8.94;100.00
24858;BME280;12935;50.782;6.074;2023-03-26T00:39:39;98694.75;;;9.02;100.00
24858;BME280;12935;50.782;6.074;2023-03-26T00:42:04;98686.56;;;9.02;100.00
24858;BME280;12935;50.782;6.074;2023-03-26T00:44:31;98688.78;;;9.14;100.00
24858;BME280;12935;50.782;6.074;2023-03-26T00:46:57;98676.31;;;9.17;100.00
24858;BME280;12935;50.782;6.074;2023-03-26T00:49:22;98671.88;;;8.89;100.00
24858;BME280;12935;50.782;6.074;2023-03-26T00:51:51;98676.97;;;8.87;100.00
24858;BME280;12935;50.782;6.074;2023-03-26T00:54:17;98676.03;;;9.04;100.00
24858;BME280;12935;50.782;6.074;2023-03-26T00:56:43;98671.41;;;8.97;100.00
24858;BME280;12935;50.782;6.074;2023-03-26T00:59:09;98671.91;;;8.85;100.00
24858;BME280;12935;50.782;6.074;2023-03-26T01:01:35;98666.81;;;8.91;100.00
24858;BME280;12935;50.782;6.074;2023-03-26T01:04:21;98661.38;;;8.91;100.00
24858;BME280;12935;50.782;6.074;2023-03-26T01:06:53;98653.53;;;8.96;100.00
24858;BME280;12935;50.782;6.074;2023-03-26T01:09:21;98651.59;;;8.97;100.00
24858;BME280;12935;50.782;6.074;2023-03-26T01:11:49;98657.69;;;9.11;100.00
24858;BME280;12935;50.782;6.074;2023-03-26T01:14:21;98639.44;;;9.05;100.00
24858;BME280;12935;50.782;6.074;2023-03-26T01:22:12;98641.94;;;8.89;100.00
24858;BME280;12935;50.782;6.074;2023-03-26T01:24:39;98638.44;;;8.88;100.00
24858;BME280;12935;50.782;6.074;2023-03-26T01:29:53;98634.47;;;8.96;100.00
24858;BME280;12935;50.782;6.074;2023-03-26T01:37:50;98623.72;;;9.20;100.00
24858;BME280;12935;50.782;6.074;2023-03-26T01:42:46;98618.53;;;8.95;100.00
24858;BME280;12935;50.782;6.074;2023-03-26T01:45:23;98604.06;;;9.01;100.00
24858;BME280;12935;50.782;6.074;2023-03-26T01:47:51;98608.75;;;8.97;100.00
24858;BME280;12935;50.782;6.074;2023-03-26T01:50:17;98612.25;;;8.98;100.00
24858;BME280;12935;50.782;6.074;2023-03-26T01:52:42;98603.69;;;8.99;100.00
24858;BME280;12935;50.782;6.074;2023-03-26T01:55:08;98599.66;;;8.73;100.00
24858;BME280;12935;50.782;6.074;2023-03-26T01:58:02;98599.09;;;8.93;100.00
24858;BME280;12935;50.782;6.074;2023-03-26T02:00:36;98583.88;;;8.95;100.00
24858;BME280;12935;50.782;6.074;2023-03-26T02:03:15;98579.88;;;9.07;100.00
24858;BME280;12935;50.782;6.074;2023-03-26T02:06:20;98573.53;;;9.17;100.00
24858;BME280;12935;50.782;6.074;2023-03-26T02:08:53;98570.94;;;9.03;100.00
24858;BME280;12935;50.782;6.074;2023-03-26T02:11:21;98569.38;;;9.05;100.00
24858;BME280;12935;50.782;6.074;2023-03-26T02:13:46;98572.72;;;9.20;100.00
24858;BME280;12935;50.782;6.074;2023-03-26T02:16:14;98564.50;;;9.24;100.00
24858;BME280;12935;50.782;6.074;2023-03-26T02:18:43;98556.72;;;9.22;100.00
24858;BME280;12935;50.782;6.074;2023-03-26T02:21:18;98556.97;;;8.97;100.00
24858;BME280;12935;50.782;6.074;2023-03-26T02:23:52;98550.22;;;9.12;100.00
24858;BME280;12935;50.782;6.074;2023-03-26T02:26:22;98549.69;;;9.25;100.00
24858;BME280;12935;50.782;6.074;2023-03-26T02:28:47;98538.06;;;9.21;100.00
24858;BME280;12935;50.782;6.074;2023-03-26T02:31:13;98537.34;;;9.13;100.00
24858;BME280;12935;50.782;6.074;2023-03-26T02:33:40;98526.38;;;9.20;100.00
24858;BME280;12935;50.782;6.074;2023-03-26T02:36:06;98532.06;;;8.99;100.00
24858;BME280;12935;50.782;6.074;2023-03-26T02:38:32;98526.63;;;8.99;100.00
24858;BME280;12935;50.782;6.074;2023-03-26T02:41:02;98510.56;;;9.08;100.00
24858;BME280;12935;50.782;6.074;2023-03-26T02:43:28;98509.03;;;9.07;100.00
24858;BME280;12935;50.782;6.074;2023-03-26T02:45:53;98514.16;;;8.98;100.00
24858;BME280;12935;50.782;6.074;2023-03-26T02:48:18;98502.03;;;9.06;100.00
24858;BME280;12935;50.782;6.074;2023-03-26T02:50:45;98495.00;;;9.08;100.00
24858;BME280;12935;50.782;6.074;2023-03-26T02:53:14;98487.19;;;9.10;100.00
24858;BME280;12935;50.782;6.074;2023-03-26T02:55:40;98485.09;;;9.22;100.00
24858;BME280;12935;50.782;6.074;2023-03-26T02:58:05;98478.53;;;9.15;100.00
24858;BME280;12935;50.782;6.074;2023-03-26T03:00:31;98454.78;;;9.16;100.00
24858;BME280;12935;50.782;6.074;2023-03-26T03:02:57;98466.81;;;9.19;100.00
24858;BME280;12935;50.782;6.074;2023-03-26T03:05:23;98459.47;;;9.15;100.00
24858;BME280;12935;50.782;6.074;2023-03-26T03:07:51;98452.47;;;9.14;100.00
24858;BME280;12935;50.782;6.074;2023-03-26T03:10:22;98448.72;;;9.05;100.00
24858;BME280;12935;50.782;6.074;2023-03-26T03:12:47;98454.53;;;9.07;100.00
24858;BME280;12935;50.782;6.074;2023-03-26T03:15:12;98443.22;;;9.08;100.00
24858;BME280;12935;50.782;6.074;2023-03-26T03:17:38;98431.56;;;9.08;100.00
24858;BME280;12935;50.782;6.074;2023-03-26T03:20:05;98445.13;;;9.11;100.00
24858;BME280;12935;50.782;6.074;2023-03-26T03:22:33;98439.31;;;9.09;100.00
24858;BME280;12935;50.782;6.074;2023-03-26T03:24:58;98429.22;;;9.06;100.00
24858;BME280;12935;50.782;6.074;2023-03-26T03:27:24;98431.66;;;8.97;100.00
24858;BME280;12935;50.782;6.074;2023-03-26T03:29:50;98416.09;;;8.98;100.00
24858;BME280;12935;50.782;6.074;2023-03-26T03:32:18;98406.97;;;9.11;100.00
24858;BME280;12935;50.782;6.074;2023-03-26T03:34:43;98402.66;;;9.14;100.00
24858;BME280;12935;50.782;6.074;2023-03-26T03:37:08;98404.66;;;9.10;100.00
24858;BME280;12935;50.782;6.074;2023-03-26T03:39:34;98403.91;;;9.09;100.00
24858;BME280;12935;50.782;6.074;2023-03-26T03:41:59;98390.94;;;9.17;100.00
24858;BME280;12935;50.782;6.074;2023-03-26T03:44:24;98381.53;;;9.22;100.00
24858;BME280;12935;50.782;6.074;2023-03-26T03:46:50;98387.44;;;9.17;100.00
24858;BME280;12935;50.782;6.074;2023-03-26T03:49:18;98381.72;;;9.07;100.00
24858;BME280;12935;50.782;6.074;2023-03-26T03:51:43;98380.50;;;9.12;100.00
24858;BME280;12935;50.782;6.074;2023-03-26T03:54:08;98376.94;;;9.15;100.00
24858;BME280;12935;50.782;6.074;2023-03-26T03:56:34;98373.34;;;9.22;100.00
24858;BME280;12935;50.782;6.074;2023-03-26T03:59:00;98375.22;;;9.28;100.00
24858;BME280;12935;50.782;6.074;2023-03-26T04:01:25;98365.78;;;9.33;100.00
24858;BME280;12935;50.782;6.074;2023-03-26T04:03:50;98359.28;;;9.27;100.00
24858;BME280;12935;50.782;6.074;2023-03-26T04:06:16;98361.91;;;9.30;100.00
24858;BME280;12935;50.782;6.074;2023-03-26T04:08:44;98369.91;;;9.18;100.00
24858;BME280;12935;50.782;6.074;2023-03-26T04:11:11;98375.63;;;9.27;100.00
24858;BME280;12935;50.782;6.074;2023-03-26T04:13:37;98367.13;;;9.21;100.00
24858;BME280;12935;50.782;6.074;2023-03-26T04:16:02;98357.22;;;9.07;100.00
24858;BME280;12935;50.782;6.074;2023-03-26T04:18:28;98349.81;;;9.08;100.00
24858;BME280;12935;50.782;6.074;2023-03-26T04:20:54;98344.94;;;8.96;100.00
24858;BME280;12935;50.782;6.074;2023-03-26T04:23:20;98352.72;;;8.94;100.00
24858;BME280;12935;50.782;6.074;2023-03-26T04:25:52;98338.84;;;8.85;100.00
24858;BME280;12935;50.782;6.074;2023-03-26T04:28:26;98330.25;;;8.86;100.00
24858;BME280;12935;50.782;6.074;2023-03-26T04:30:54;98328.59;;;8.96;100.00
24858;BME280;12935;50.782;6.074;2023-03-26T04:33:21;98326.25;;;8.94;100.00
24858;BME280;12935;50.782;6.074;2023-03-26T04:35:49;98304.56;;;8.87;100.00
24858;BME280;12935;50.782;6.074;2023-03-26T04:38:15;98309.06;;;8.97;100.00
24858;BME280;12935;50.782;6.074;2023-03-26T04:40:42;98305.53;;;9.00;100.00
24858;BME280;12935;50.782;6.074;2023-03-26T04:43:13;98295.72;;;9.06;100.00
24858;BME280;12935;50.782;6.074;2023-03-26T04:45:40;98287.53;;;9.06;100.00
24858;BME280;12935;50.782;6.074;2023-03-26T04:48:07;98295.44;;;8.97;100.00
24858;BME280;12935;50.782;6.074;2023-03-26T04:50:32;98287.25;;;8.74;100.00
24858;BME280;12935;50.782;6.074;2023-03-26T04:52:58;98288.38;;;8.76;100.00
24858;BME280;12935;50.782;6.074;2023-03-26T04:55:28;98274.34;;;8.78;100.00
24858;BME280;12935;50.782;6.074;2023-03-26T04:57:57;98266.47;;;8.84;100.00
24858;BME280;12935;50.782;6.074;2023-03-26T05:00:24;98257.50;;;8.87;100.00
24858;BME280;12935;50.782;6.074;2023-03-26T05:02:50;98257.06;;;8.88;100.00
24858;BME280;12935;50.782;6.074;2023-03-26T05:05:20;98252.03;;;8.87;100.00
24858;BME280;12935;50.782;6.074;2023-03-26T05:07:45;98251.63;;;8.88;100.00
24858;BME280;12935;50.782;6.074;2023-03-26T05:10:12;98247.38;;;8.87;100.00
24858;BME280;12935;50.782;6.074;2023-03-26T05:12:39;98233.16;;;8.76;100.00
24858;BME280;12935;50.782;6.074;2023-03-26T05:15:05;98231.06;;;8.84;100.00
24858;BME280;12935;50.782;6.074;2023-03-26T05:17:31;98232.31;;;8.79;100.00
24858;BME280;12935;50.782;6.074;2023-03-26T05:19:59;98237.00;;;8.78;100.00
24858;BME280;12935;50.782;6.074;2023-03-26T05:22:25;98234.41;;;8.68;100.00
24858;BME280;12935;50.782;6.074;2023-03-26T05:24:50;98224.28;;;8.68;100.00
24858;BME280;12935;50.782;6.074;2023-03-26T05:27:16;98220.50;;;8.62;100.00
24858;BME280;12935;50.782;6.074;2023-03-26T05:29:44;98214.66;;;8.64;100.00
24858;BME280;12935;50.782;6.074;2023-03-26T05:32:10;98218.84;;;8.68;100.00
24858;BME280;12935;50.782;6.074;2023-03-26T05:34:38;98208.03;;;8.65;100.00
24858;BME280;12935;50.782;6.074;2023-03-26T05:37:04;98203.09;;;8.56;100.00
24858;BME280;12935;50.782;6.074;2023-03-26T05:39:31;98196.84;;;8.59;100.00
24858;BME280;12935;50.782;6.074;2023-03-26T05:41:57;98189.53;;;8.53;100.00
24858;BME280;12935;50.782;6.074;2023-03-26T05:44:22;98174.38;;;8.52;100.00
24858;BME280;12935;50.782;6.074;2023-03-26T05:46:48;98178.28;;;8.51;100.00
24858;BME280;12935;50.782;6.074;2023-03-26T05:49:13;98179.00;;;8.55;100.00
24858;BME280;12935;50.782;6.074;2023-03-26T05:51:38;98177.81;;;8.56;100.00
24858;BME280;12935;50.782;6.074;2023-03-26T05:54:04;98179.38;;;8.57;100.00
24858;BME280;12935;50.782;6.074;2023-03-26T05:56:29;98173.16;;;8.56;100.00
24858;BME280;12935;50.782;6.074;2023-03-26T05:58:55;98175.50;;;8.54;100.00
24858;BME280;12935;50.782;6.074;2023-03-26T06:01:21;98173.16;;;8.56;100.00
24858;BME280;12935;50.782;6.074;2023-03-26T06:03:47;98164.38;;;8.45;100.00
24858;BME280;12935;50.782;6.074;2023-03-26T06:06:15;98166.69;;;8.47;100.00
24858;BME280;12935;50.782;6.074;2023-03-26T06:08:49;98165.50;;;8.48;100.00
24858;BME280;12935;50.782;6.074;2023-03-26T06:11:16;98159.19;;;8.54;100.00
24858;BME280;12935;50.782;6.074;2023-03-26T06:13:42;98164.22;;;8.56;100.00
24858;BME280;12935;50.782;6.074;2023-03-26T06:16:09;98158.44;;;8.50;100.00
24858;BME280;12935;50.782;6.074;2023-03-26T06:18:35;98159.06;;;8.34;100.00
24858;BME280;12935;50.782;6.074;2023-03-26T06:21:01;98157.41;;;8.44;100.00
24858;BME280;12935;50.782;6.074;2023-03-26T06:23:27;98153.50;;;8.45;100.00
24858;BME280;12935;50.782;6.074;2023-03-26T06:25:52;98152.72;;;8.44;100.00
24858;BME280;12935;50.782;6.074;2023-03-26T06:28:18;98149.41;;;8.33;100.00
24858;BME280;12935;50.782;6.074;2023-03-26T06:30:43;98138.22;;;8.24;100.00
24858;BME280;12935;50.782;6.074;2023-03-26T06:33:09;98143.94;;;8.33;100.00
24858;BME280;12935;50.782;6.074;2023-03-26T06:35:35;98132.13;;;8.17;100.00
24858;BME280;12935;50.782;6.074;2023-03-26T06:38:00;98138.63;;;8.23;100.00
24858;BME280;12935;50.782;6.074;2023-03-26T06:40:26;98129.31;;;8.20;100.00
24858;BME280;12935;50.782;6.074;2023-03-26T06:42:51;98130.00;;;8.28;100.00
24858;BME280;12935;50.782;6.074;2023-03-26T06:45:17;98127.19;;;8.35;100.00
24858;BME280;12935;50.782;6.074;2023-03-26T06:47:42;98118.94;;;8.42;100.00
24858;BME280;12935;50.782;6.074;2023-03-26T06:50:09;98120.47;;;8.43;100.00
24858;BME280;12935;50.782;6.074;2023-03-26T06:52:36;98117.78;;;8.39;100.00
24858;BME280;12935;50.782;6.074;2023-03-26T06:55:01;98107.88;;;8.26;100.00
24858;BME280;12935;50.782;6.074;2023-03-26T06:57:26;98104.75;;;8.27;100.00
24858;BME280;12935;50.782;6.074;2023-03-26T06:59:52;98102.84;;;8.24;100.00
24858;BME280;12935;50.782;6.074;2023-03-26T07:02:17;98110.13;;;8.31;100.00
24858;BME280;12935;50.782;6.074;2023-03-26T07:04:42;98095.75;;;8.30;100.00
24858;BME280;12935;50.782;6.074;2023-03-26T07:07:07;98074.09;;;8.23;100.00
24858;BME280;12935;50.782;6.074;2023-03-26T07:09:33;98084.84;;;8.34;100.00
24858;BME280;12935;50.782;6.074;2023-03-26T07:11:58;98088.28;;;8.38;100.00
24858;BME280;12935;50.782;6.074;2023-03-26T07:14:24;98084.00;;;8.37;100.00
24858;BME280;12935;50.782;6.074;2023-03-26T07:16:52;98087.50;;;8.37;100.00
24858;BME280;12935;50.782;6.074;2023-03-26T07:19:17;98078.56;;;8.37;100.00
24858;BME280;12935;50.782;6.074;2023-03-26T07:21:43;98086.41;;;8.31;100.00
24858;BME280;12935;50.782;6.074;2023-03-26T07:24:11;98077.53;;;8.27;100.00
24858;BME280;12935;50.782;6.074;2023-03-26T07:31:57;98063.16;;;8.27;100.00
24858;BME280;12935;50.782;6.074;2023-03-26T07:34:46;98063.22;;;8.23;100.00
24858;BME280;12935;50.782;6.074;2023-03-26T07:39:57;98049.66;;;8.20;100.00
24858;BME280;12935;50.782;6.074;2023-03-26T07:45:31;98036.41;;;7.98;100.00
24858;BME280;12935;50.782;6.074;2023-03-26T07:47:58;98031.31;;;8.00;100.00
24858;BME280;12935;50.782;6.074;2023-03-26T07:50:24;98030.25;;;7.94;100.00
24858;BME280;12935;50.782;6.074;2023-03-26T07:52:50;98029.06;;;7.95;100.00
24858;BME280;12935;50.782;6.074;2023-03-26T07:55:16;98021.50;;;8.06;100.00
24858;BME280;12935;50.782;6.074;2023-03-26T07:57:57;98009.56;;;8.00;100.00
24858;BME280;12935;50.782;6.074;2023-03-26T08:00:34;98004.34;;;8.09;100.00
24858;BME280;12935;50.782;6.074;2023-03-26T08:06:38;97999.41;;;8.28;100.00
24858;BME280;12935;50.782;6.074;2023-03-26T08:12:15;97988.00;;;8.36;100.00
24858;BME280;12935;50.782;6.074;2023-03-26T08:14:58;97985.88;;;8.48;100.00
24858;BME280;12935;50.782;6.074;2023-03-26T08:17:38;97977.16;;;8.56;100.00
24858;BME280;12935;50.782;6.074;2023-03-26T08:26:15;97967.09;;;8.73;100.00
24858;BME280;12935;50.782;6.074;2023-03-26T08:29:02;97962.78;;;8.75;100.00
24858;BME280;12935;50.782;6.074;2023-03-26T08:31:33;97965.56;;;8.72;100.00
24858;BME280;12935;50.782;6.074;2023-03-26T08:33:59;97960.53;;;8.70;100.00
24858;BME280;12935;50.782;6.074;2023-03-26T08:36:25;97963.63;;;8.72;100.00
24858;BME280;12935;50.782;6.074;2023-03-26T08:38:52;97962.84;;;8.72;100.00
24858;BME280;12935;50.782;6.074;2023-03-26T08:41:37;97954.56;;;8.79;100.00
24858;BME280;12935;50.782;6.074;2023-03-26T08:47:38;97950.00;;;8.92;100.00
24858;BME280;12935;50.782;6.074;2023-03-26T08:56:07;97933.72;;;8.89;100.00
24858;BME280;12935;50.782;6.074;2023-03-26T09:12:20;97922.78;;;9.28;100.00
24858;BME280;12935;50.782;6.074;2023-03-26T09:44:14;97894.31;;;9.94;100.00
24858;BME280;12935;50.782;6.074;2023-03-26T09:46:46;97893.56;;;9.94;100.00
24858;BME280;12935;50.782;6.074;2023-03-26T09:49:25;97878.94;;;9.88;100.00
24858;BME280;12935;50.782;6.074;2023-03-26T10:00:50;97880.28;;;9.31;100.00
24858;BME280;12935;50.782;6.074;2023-03-26T10:14:14;97920.53;;;8.67;100.00
24858;BME280;12935;50.782;6.074;2023-03-26T10:32:57;97891.38;;;9.40;100.00
24858;BME280;12935;50.782;6.074;2023-03-26T10:35:49;97889.75;;;9.42;100.00
24858;BME280;12935;50.782;6.074;2023-03-26T10:38:24;97894.53;;;9.55;100.00
24858;BME280;12935;50.782;6.074;2023-03-26T10:41:11;97892.81;;;8.92;100.00
24858;BME280;12935;50.782;6.074;2023-03-26T10:52:20;97885.56;;;9.22;100.00
24858;BME280;12935;50.782;6.074;2023-03-26T10:54:55;97882.06;;;8.85;100.00
24858;BME280;12935;50.782;6.074;2023-03-26T10:57:32;97889.78;;;9.06;100.00
24858;BME280;12935;50.782;6.074;2023-03-26T11:00:12;97886.84;;;9.33;100.00
24858;BME280;12935;50.782;6.074;2023-03-26T11:02:46;97891.03;;;9.54;100.00
24858;BME280;12935;50.782;6.074;2023-03-26T11:05:26;97889.91;;;9.52;100.00
24858;BME280;12935;50.782;6.074;2023-03-26T11:08:04;97890.69;;;9.36;100.00
24858;BME280;12935;50.782;6.074;2023-03-26T11:10:50;97902.25;;;8.88;100.00
24858;BME280;12935;50.782;6.074;2023-03-26T11:13:28;97903.72;;;8.53;100.00
24858;BME280;12935;50.782;6.074;2023-03-26T11:16:03;97895.41;;;8.79;100.00
24858;BME280;12935;50.782;6.074;2023-03-26T11:19:25;97904.06;;;8.55;100.00
24858;BME280;12935;50.782;6.074;2023-03-26T11:24:57;97908.88;;;8.67;100.00
24858;BME280;12935;50.782;6.074;2023-03-26T11:27:49;97916.69;;;8.85;100.00
24858;BME280;12935;50.782;6.074;2023-03-26T11:31:28;97911.22;;;9.04;100.00
24858;BME280;12935;50.782;6.074;2023-03-26T11:33:34;97906.63;;;8.82;100.00
24858;BME280;12935;50.782;6.074;2023-03-26T11:36:09;97908.63;;;8.61;100.00
24858;BME280;12935;50.782;6.074;2023-03-26T11:38:38;97913.84;;;8.72;100.00
24858;BME280;12935;50.782;6.074;2023-03-26T11:41:15;97923.31;;;9.03;100.00
24858;BME280;12935;50.782;6.074;2023-03-26T11:43:44;97910.28;;;8.75;100.00
24858;BME280;12935;50.782;6.074;2023-03-26T11:46:17;97921.47;;;8.81;100.00
24858;BME280;12935;50.782;6.074;2023-03-26T11:48:48;97916.28;;;8.47;100.00
24858;BME280;12935;50.782;6.074;2023-03-26T11:51:33;97916.19;;;8.50;100.00
24858;BME280;12935;50.782;6.074;2023-03-26T11:54:04;97919.00;;;8.66;100.00
24858;BME280;12935;50.782;6.074;2023-03-26T11:56:50;97918.53;;;8.71;100.00
24858;BME280;12935;50.782;6.074;2023-03-26T12:01:58;97921.44;;;8.41;100.00
24858;BME280;12935;50.782;6.074;2023-03-26T12:04:40;97920.91;;;8.26;100.00
24858;BME280;12935;50.782;6.074;2023-03-26T12:09:33;97920.81;;;8.10;100.00
24858;BME280;12935;50.782;6.074;2023-03-26T12:12:02;97924.34;;;8.07;100.00
24858;BME280;12935;50.782;6.074;2023-03-26T12:14:30;97938.84;;;8.00;100.00
24858;BME280;12935;50.782;6.074;2023-03-26T12:17:07;97930.91;;;8.09;100.00
24858;BME280;12935;50.782;6.074;2023-03-26T12:19:41;97932.91;;;8.29;100.00
24858;BME280;12935;50.782;6.074;2023-03-26T12:22:28;97930.78;;;8.40;100.00
24858;BME280;12935;50.782;6.074;2023-03-26T12:27:33;97933.03;;;8.45;100.00
24858;BME280;12935;50.782;6.074;2023-03-26T12:30:23;97948.88;;;8.50;100.00
24858;BME280;12935;50.782;6.074;2023-03-26T12:32:50;97954.19;;;8.57;100.00
24858;BME280;12935;50.782;6.074;2023-03-26T12:35:21;97948.31;;;8.59;100.00
24858;BME280;12935;50.782;6.074;2023-03-26T12:37:49;97950.28;;;8.58;100.00
24858;BME280;12935;50.782;6.074;2023-03-26T12:43:20;97959.41;;;8.25;100.00
24858;BME280;12935;50.782;6.074;2023-03-26T12:45:49;97959.28;;;8.55;100.00
24858;BME280;12935;50.782;6.074;2023-03-26T12:48:16;97964.09;;;8.48;100.00
24858;BME280;12935;50.782;6.074;2023-03-26T12:54:18;97969.81;;;8.53;100.00
24858;BME280;12935;50.782;6.074;2023-03-26T12:56:19;97966.75;;;8.28;100.00
24858;BME280;12935;50.782;6.074;2023-03-26T12:59:04;97961.19;;;8.35;100.00
24858;BME280;12935;50.782;6.074;2023-03-26T13:01:46;97960.88;;;8.29;100.00
24858;BME280;12935;50.782;6.074;2023-03-26T13:10:33;97970.69;;;8.23;100.00
24858;BME280;12935;50.782;6.074;2023-03-26T13:13:32;97979.63;;;8.24;100.00
24858;BME280;12935;50.782;6.074;2023-03-26T13:16:00;97982.53;;;8.36;100.00
24858;BME280;12935;50.782;6.074;2023-03-26T13:18:41;97969.81;;;8.33;100.00
24858;BME280;12935;50.782;6.074;2023-03-26T13:29:24;97973.09;;;8.44;100.00
24858;BME280;12935;50.782;6.074;2023-03-26T13:34:58;97968.69;;;8.51;100.00
24858;BME280;12935;50.782;6.074;2023-03-26T13:37:37;97969.19;;;8.46;100.00
24858;BME280;12935;50.782;6.074;2023-03-26T13:40:28;97969.16;;;8.22;100.00
24858;BME280;12935;50.782;6.074;2023-03-26T13:48:51;97968.69;;;8.27;100.00
24858;BME280;12935;50.782;6.074;2023-03-26T13:51:32;97974.25;;;7.97;100.00
24858;BME280;12935;50.782;6.074;2023-03-26T13:54:04;97977.16;;;8.09;100.00
24858;BME280;12935;50.782;6.074;2023-03-26T13:56:43;97972.47;;;8.10;100.00
24858;BME280;12935;50.782;6.074;2023-03-26T13:59:37;97976.22;;;7.96;100.00
24858;BME280;12935;50.782;6.074;2023-03-26T14:02:10;97976.63;;;7.95;100.00
24858;BME280;12935;50.782;6.074;2023-03-26T14:04:43;97980.97;;;7.89;100.00
24858;BME280;12935;50.782;6.074;2023-03-26T14:07:21;97983.81;;;7.82;100.00
24858;BME280;12935;50.782;6.074;2023-03-26T14:15:18;97994.34;;;7.80;100.00
24858;BME280;12935;50.782;6.074;2023-03-26T14:17:54;97990.47;;;7.77;100.00
24858;BME280;12935;50.782;6.074;2023-03-26T14:20:31;97999.03;;;7.75;100.00
24858;BME280;12935;50.782;6.074;2023-03-26T14:26:11;98003.22;;;8.07;100.00
24858;BME280;12935;50.782;6.074;2023-03-26T14:29:12;98007.00;;;8.40;100.00
24858;BME280;12935;50.782;6.074;2023-03-26T14:38:10;98018.00;;;8.06;100.00
24858;BME280;12935;50.782;6.074;2023-03-26T14:40:54;98026.25;;;8.02;100.00
24858;BME280;12935;50.782;6.074;2023-03-26T14:46:20;98025.94;;;7.97;100.00
24858;BME280;12935;50.782;6.074;2023-03-26T14:54:49;98052.94;;;7.84;100.00
24858;BME280;12935;50.782;6.074;2023-03-26T15:05:46;98071.31;;;7.73;100.00
24858;BME280;12935;50.782;6.074;2023-03-26T15:11:22;98081.94;;;7.64;100.00
24858;BME280;12935;50.782;6.074;2023-03-26T15:14:11;98085.19;;;7.52;100.00
24858;BME280;12935;50.782;6.074;2023-03-26T15:25:40;98100.59;;;7.62;100.00
24858;BME280;12935;50.782;6.074;2023-03-26T15:39:37;98129.31;;;7.93;100.00
24858;BME280;12935;50.782;6.074;2023-03-26T15:42:25;98130.13;;;7.90;100.00
24858;BME280;12935;50.782;6.074;2023-03-26T15:47:52;98146.84;;;7.89;100.00
24858;BME280;12935;50.782;6.074;2023-03-26T15:53:20;98148.50;;;7.83;100.00
24858;BME280;12935;50.782;6.074;2023-03-26T15:58:24;98166.56;;;7.96;100.00
24858;BME280;12935;50.782;6.074;2023-03-26T16:01:15;98170.38;;;7.72;100.00
24858;BME280;12935;50.782;6.074;2023-03-26T16:03:50;98171.50;;;7.74;100.00
24858;BME280;12935;50.782;6.074;2023-03-26T16:12:27;98200.78;;;7.94;100.00
24858;BME280;12935;50.782;6.074;2023-03-26T16:20:51;98197.72;;;7.92;100.00
24858;BME280;12935;50.782;6.074;2023-03-26T16:26:10;98217.47;;;7.62;100.00
24858;BME280;12935;50.782;6.074;2023-03-26T16:33:52;98227.41;;;7.75;100.00
24858;BME280;12935;50.782;6.074;2023-03-26T16:36:30;98232.19;;;7.68;100.00
24858;BME280;12935;50.782;6.074;2023-03-26T16:41:28;98242.91;;;7.82;100.00
24858;BME280;12935;50.782;6.074;2023-03-26T16:49:53;98259.81;;;7.97;100.00
24858;BME280;12935;50.782;6.074;2023-03-26T16:55:15;98273.78;;;7.99;100.00
24858;BME280;12935;50.782;6.074;2023-03-26T16:57:48;98280.03;;;7.96;100.00
24858;BME280;12935;50.782;6.074;2023-03-26T17:03:09;98280.03;;;7.58;100.00
24858;BME280;12935;50.782;6.074;2023-03-26T17:08:24;98298.19;;;7.68;100.00
24858;BME280;12935;50.782;6.074;2023-03-26T17:10:55;98308.72;;;7.63;100.00
24858;BME280;12935;50.782;6.074;2023-03-26T17:21:59;98332.13;;;7.53;100.00
24858;BME280;12935;50.782;6.074;2023-03-26T17:24:54;98339.78;;;7.65;100.00
24858;BME280;12935;50.782;6.074;2023-03-26T17:27:26;98350.28;;;7.60;100.00
24858;BME280;12935;50.782;6.074;2023-03-26T17:40:57;98379.50;;;7.52;100.00
24858;BME280;12935;50.782;6.074;2023-03-26T17:43:45;98387.03;;;7.30;100.00
24858;BME280;12935;50.782;6.074;2023-03-26T17:51:45;98403.88;;;7.04;100.00
24858;BME280;12935;50.782;6.074;2023-03-26T17:54:25;98412.44;;;6.95;100.00
24858;BME280;12935;50.782;6.074;2023-03-26T17:56:53;98420.66;;;6.85;100.00
24858;BME280;12935;50.782;6.074;2023-03-26T17:59:23;98429.56;;;6.89;100.00
24858;BME280;12935;50.782;6.074;2023-03-26T18:01:53;98436.94;;;6.81;100.00
24858;BME280;12935;50.782;6.074;2023-03-26T18:04:33;98451.28;;;6.78;100.00
24858;BME280;12935;50.782;6.074;2023-03-26T18:07:47;98449.34;;;6.82;100.00
24858;BME280;12935;50.782;6.074;2023-03-26T18:18:58;98474.22;;;6.70;100.00
24858;BME280;12935;50.782;6.074;2023-03-26T18:21:35;98485.41;;;6.90;100.00
24858;BME280;12935;50.782;6.074;2023-03-26T18:24:02;98501.66;;;6.97;100.00
24858;BME280;12935;50.782;6.074;2023-03-26T18:26:38;98499.00;;;6.86;100.00
24858;BME280;12935;50.782;6.074;2023-03-26T18:31:54;98506.03;;;6.59;100.00
24858;BME280;12935;50.782;6.074;2023-03-26T18:34:20;98521.56;;;6.55;100.00